createdAt,value
2022-08-09T00:00:12.031Z,100052.91
2022-08-09T00:00:24.175Z,100054.78
2022-08-09T00:00:44.634Z,100053.22
2022-08-09T00:00:58.243Z,100052.28
2022-08-09T00:01:15.572Z,100052.38
2022-08-09T00:01:48.323Z,100055.09
2022-08-09T00:02:00.578Z,100052.38
2022-08-09T00:02:12.597Z,100053.31
2022-08-09T00:02:26.546Z,100052.56
2022-08-09T00:02:48.986Z,100049.91
2022-08-09T00:03:01.600Z,100050.13
2022-08-09T00:04:05.620Z,100052.69
2022-08-09T00:04:24.827Z,100058.97
2022-08-09T00:04:36.463Z,100058.81
2022-08-09T00:05:03.508Z,100057.72
2022-08-09T00:06:18.563Z,100055.66
2022-08-09T00:06:18.957Z,100052.63
2022-08-09T00:06:25.556Z,100057.50
2022-08-09T00:06:38.129Z,100050.53
2022-08-09T00:06:56.163Z,100056.75
2022-08-09T00:07:10.711Z,100056.84
2022-08-09T00:07:23.024Z,100052.34
2022-08-09T00:07:44.471Z,100048.84
2022-08-09T00:07:57.194Z,100053.19
2022-08-09T00:08:32.486Z,100053.94
2022-08-09T00:08:48.379Z,100053.94
2022-08-09T00:09:01.906Z,100050.63
2022-08-09T00:09:17.829Z,100049.56
2022-08-09T00:09:33.015Z,100053.38
2022-08-09T00:09:45.538Z,100050.81
2022-08-09T00:09:57.529Z,100050.94
2022-08-09T00:10:18.202Z,100057.06
2022-08-09T00:10:33.287Z,100058.63
2022-08-09T00:10:47.643Z,100048.19
2022-08-09T00:11:00.704Z,100054.31
2022-08-09T00:11:25.033Z,100055.16
2022-08-09T00:12:03.756Z,100055.16
2022-08-09T00:12:22.479Z,100058.84
2022-08-09T00:12:34.933Z,100054.31
2022-08-09T00:12:46.900Z,100054.31
2022-08-09T00:13:03.803Z,100052.44
2022-08-09T00:13:18.123Z,100054.84
2022-08-09T00:13:31.569Z,100059.19
2022-08-09T00:13:44.583Z,100052.13
2022-08-09T00:13:58.488Z,100057.31
2022-08-09T00:14:11.361Z,100058.16
2022-08-09T00:14:36.222Z,100058.25
2022-08-09T00:14:48.874Z,100052.22
2022-08-09T00:15:07.145Z,100050.53
2022-08-09T00:15:35.596Z,100056.66
2022-08-09T00:16:02.109Z,100047.34
2022-08-09T00:16:14.935Z,100052.72
2022-08-09T00:16:38.481Z,100056.00
2022-08-09T00:16:50.542Z,100053.28
2022-08-09T00:17:03.649Z,100053.47
2022-08-09T00:18:05.558Z,100049.06
2022-08-09T00:18:09.578Z,100056.09
2022-08-09T00:18:19.473Z,100051.53
2022-08-09T00:18:35.522Z,100060.19
2022-08-09T00:18:49.273Z,100057.56
2022-08-09T00:19:01.819Z,100054.06
2022-08-09T00:19:15.251Z,100055.66
2022-08-09T00:19:30.641Z,100052.84
2022-08-09T00:19:48.023Z,100056.22
2022-08-09T00:20:00.129Z,100059.78
2022-08-09T00:20:12.246Z,100056.22
2022-08-09T00:20:24.258Z,100059.78
2022-08-09T00:20:36.263Z,100054.50
2022-08-09T00:20:50.351Z,100051.97
2022-08-09T00:21:04.915Z,100055.25
2022-08-09T00:21:17.128Z,100052.63
2022-08-09T00:21:29.170Z,100049.22
2022-08-09T00:21:55.502Z,100054.50
2022-08-09T00:22:08.918Z,100056.97
2022-08-09T00:22:23.363Z,100056.00
2022-08-09T00:22:36.290Z,100057.06
2022-08-09T00:22:48.462Z,100061.50
2022-08-09T00:23:54.024Z,100053.59
2022-08-09T00:23:58.182Z,100053.84
2022-08-09T00:24:05.335Z,100058.19
2022-08-09T00:24:17.263Z,100056.50
2022-08-09T00:24:32.653Z,100060.00
2022-08-09T00:24:44.629Z,100058.09
2022-08-09T00:24:59.278Z,100059.88
2022-08-09T00:25:12.662Z,100058.94
2022-08-09T00:25:32.801Z,100059.78
2022-08-09T00:25:45.047Z,100054.50
2022-08-09T00:26:05.598Z,100057.06
2022-08-09T00:26:17.561Z,100057.91
2022-08-09T00:26:33.033Z,100057.91
2022-08-09T00:26:45.424Z,100063.00
2022-08-09T00:26:59.867Z,100062.03
2022-08-09T00:27:11.954Z,100063.00
2022-08-09T00:27:23.907Z,100065.53
2022-08-09T00:27:43.279Z,100055.72
2022-08-09T00:27:55.363Z,100057.50
2022-08-09T00:28:07.390Z,100061.09
2022-08-09T00:28:22.902Z,100063.72
2022-08-09T00:28:39.544Z,100060.88
2022-08-09T00:28:52.564Z,100056.56
2022-08-09T00:29:12.232Z,100061.75
2022-08-09T00:29:39.813Z,100054.75
2022-08-09T00:30:25.541Z,100049.50
2022-08-09T00:30:38.903Z,100054.75
2022-08-09T00:30:53.025Z,100053.09
2022-08-09T00:31:30.562Z,100056.47
2022-08-09T00:31:58.320Z,100050.13
2022-08-09T00:32:12.749Z,100050.88
2022-08-09T00:32:26.781Z,100049.81
2022-08-09T00:32:39.839Z,100046.34
2022-08-09T00:32:52.163Z,100049.91
2022-08-09T00:33:04.177Z,100050.97
2022-08-09T00:33:16.798Z,100050.13
2022-08-09T00:33:32.528Z,100057.09
2022-08-09T00:33:50.385Z,100055.41
2022-08-09T00:34:03.527Z,100051.06
2022-08-09T00:34:15.610Z,100049.41
2022-08-09T00:34:32.549Z,100057.22
2022-08-09T00:34:46.273Z,100048.44
2022-08-09T00:35:04.542Z,100052.97
2022-08-09T00:35:16.489Z,100049.41
2022-08-09T00:35:29.683Z,100051.06
2022-08-09T00:35:55.883Z,100046.09
2022-08-09T00:36:07.955Z,100044.44
2022-08-09T00:36:22.215Z,100052.22
2022-08-09T00:36:41.660Z,100044.22
2022-08-09T00:36:53.827Z,100039.78
2022-08-09T00:37:05.802Z,100048.44
2022-08-09T00:37:18.962Z,100052.03
2022-08-09T00:37:32.486Z,100047.59
2022-08-09T00:37:44.698Z,100046.41
2022-08-09T00:37:57.754Z,100051.56
2022-08-09T00:38:12.445Z,100045.34
2022-08-09T00:38:24.407Z,100046.28
2022-08-09T00:38:37.713Z,100045.25
2022-08-09T00:38:51.250Z,100049.56
2022-08-09T00:39:04.754Z,100046.00
2022-08-09T00:40:09.522Z,100048.44
2022-08-09T00:40:13.534Z,100046.94
2022-08-09T00:40:22.379Z,100047.16
2022-08-09T00:40:52.579Z,100048.66
2022-08-09T00:41:08.321Z,100043.16
2022-08-09T00:44:11.190Z,100049.72
2022-08-09T00:44:11.352Z,100049.91
2022-08-09T00:44:11.499Z,100050.97
2022-08-09T00:44:12.945Z,100049.50
2022-08-09T00:44:13.636Z,100044.13
2022-08-09T00:44:14.158Z,100047.69
2022-08-09T00:44:37.510Z,100048.44
2022-08-09T00:44:49.603Z,100050.97
2022-08-09T00:45:03.800Z,100052.78
2022-08-09T00:45:28.240Z,100041.25
2022-08-09T00:45:50.469Z,100056.06
2022-08-09T00:46:08.397Z,100052.38
2022-08-09T00:46:41.181Z,100045.94
2022-08-09T00:47:01.807Z,100045.09
2022-08-09T00:47:17.201Z,100042.47
2022-08-09T00:47:33.176Z,100047.63
2022-08-09T00:47:51.585Z,100049.31
2022-08-09T00:48:05.568Z,100043.31
2022-08-09T00:48:19.430Z,100045.09
2022-08-09T00:48:32.145Z,100045.94
2022-08-09T00:48:47.605Z,100040.44
2022-08-09T00:49:01.531Z,100043.72
2022-08-09T00:49:16.029Z,100042.88
2022-08-09T00:49:31.075Z,100045.59
2022-08-09T00:49:52.431Z,100042.97
2022-08-09T00:50:05.148Z,100044.53
2022-08-09T00:50:17.237Z,100044.47
2022-08-09T00:50:29.204Z,100040.00
2022-08-09T00:50:41.304Z,100042.56
2022-08-09T00:50:56.237Z,100040.75
2022-08-09T00:51:10.250Z,100044.22
2022-08-09T00:51:25.041Z,100047.63
2022-08-09T00:51:54.297Z,100044.22
2022-08-09T00:52:15.944Z,100049.41
2022-08-09T00:52:31.119Z,100040.50
2022-08-09T00:52:43.480Z,100042.00
2022-08-09T00:52:55.546Z,100044.63
2022-08-09T00:53:10.418Z,100041.06
2022-08-09T00:53:24.473Z,100042.56
2022-08-09T00:53:36.883Z,100044.13
2022-08-09T00:53:51.804Z,100039.69
2022-08-09T00:54:04.629Z,100045.84
2022-08-09T00:54:16.878Z,100040.44
2022-08-09T00:54:31.655Z,100039.41
2022-08-09T00:54:49.255Z,100046.59
2022-08-09T00:55:02.227Z,100042.16
2022-08-09T00:55:32.880Z,100044.22
2022-08-09T00:56:05.226Z,100047.84
2022-08-09T00:56:18.651Z,100043.94
2022-08-09T00:56:30.764Z,100045.53
2022-08-09T00:56:42.803Z,100038.56
2022-08-09T00:56:55.185Z,100041.94
2022-08-09T00:57:10.221Z,100049.84
2022-08-09T00:57:24.672Z,100050.91
2022-08-09T00:57:49.804Z,100041.94
2022-08-09T00:58:01.870Z,100047.03
2022-08-09T00:58:25.474Z,100052.31
2022-08-09T00:58:39.693Z,100045.53
2022-08-09T00:58:51.985Z,100049.09
2022-08-09T00:59:05.095Z,100038.56
2022-08-09T00:59:40.297Z,100046.28
2022-08-09T00:59:52.538Z,100051.25
2022-08-09T01:00:21.589Z,100047.75
2022-08-09T01:00:39.450Z,100042.38
2022-08-09T01:00:58.917Z,100041.75
2022-08-09T01:01:20.682Z,100046.94
2022-08-09T01:01:44.329Z,100039.84
2022-08-09T01:02:00.671Z,100040.69
2022-08-09T01:02:19.355Z,100037.94
2022-08-09T01:02:33.946Z,100046.84
2022-08-09T01:02:48.948Z,100035.81
2022-08-09T01:03:16.700Z,100055.66
2022-08-09T01:04:06.644Z,100045.94
2022-08-09T01:04:30.283Z,100044.78
2022-08-09T01:05:14.385Z,100047.03
2022-08-09T01:05:53.447Z,100041.34
2022-08-09T01:06:18.926Z,100041.34
2022-08-09T01:06:54.244Z,100040.41
2022-08-09T01:08:00.829Z,100038.16
2022-08-09T01:08:49.419Z,100045.13
2022-08-09T01:09:16.592Z,100044.94
2022-08-09T01:09:47.546Z,100046.63
2022-08-09T01:10:04.012Z,100041.75
2022-08-09T01:10:35.106Z,100040.06
2022-08-09T01:10:58.559Z,100043.00
2022-08-09T01:11:23.918Z,100042.91
2022-08-09T01:11:55.874Z,100045.53
2022-08-09T01:12:23.968Z,100040.44
2022-08-09T01:12:47.538Z,100048.91
2022-08-09T01:13:19.302Z,100045.19
2022-08-09T01:13:59.296Z,100047.84
2022-08-09T01:14:23.787Z,100051.22
2022-08-09T01:14:45.091Z,100051.00
2022-08-09T01:15:10.061Z,100047.44
2022-08-09T01:15:37.254Z,100051.75
2022-08-09T01:15:56.453Z,100050.81
2022-08-09T01:16:12.938Z,100048.91
2022-08-09T01:16:30.031Z,100048.91
2022-08-09T01:16:47.442Z,100047.22
2022-08-09T01:17:09.022Z,100050.06
2022-08-09T01:17:34.143Z,100049.97
2022-08-09T01:18:10.604Z,100051.97
2022-08-09T01:18:31.344Z,100051.22
2022-08-09T01:18:47.453Z,100051.97
2022-08-09T01:19:16.916Z,100051.22
2022-08-09T01:20:01.587Z,100051.00
2022-08-09T01:20:24.802Z,100055.44
2022-08-09T01:20:38.937Z,100045.09
2022-08-09T01:21:12.021Z,100054.78
2022-08-09T01:21:45.180Z,100056.50
2022-08-09T01:22:12.534Z,100053.13
2022-08-09T01:22:51.288Z,100053.84
2022-08-09T01:24:02.838Z,100055.00
2022-08-09T01:24:32.906Z,100058.59
2022-08-09T01:24:52.262Z,100051.72
2022-08-09T01:25:33.246Z,100049.19
2022-08-09T01:26:14.232Z,100060.03
2022-08-09T01:27:04.074Z,100052.34
2022-08-09T01:27:23.888Z,100052.84
2022-08-09T01:27:38.868Z,100053.09
2022-08-09T01:27:57.011Z,100055.66
2022-08-09T01:28:11.543Z,100053.03
2022-08-09T01:28:26.009Z,100056.81
2022-08-09T01:28:44.172Z,100055.13
2022-08-09T01:29:01.323Z,100048.34
2022-08-09T01:29:15.906Z,100053.72
2022-08-09T01:29:41.150Z,100052.88
2022-08-09T01:30:08.296Z,100060.59
2022-08-09T01:30:51.478Z,100055.31
2022-08-09T01:31:11.132Z,100051.91
2022-08-09T01:32:30.002Z,100053.34
2022-08-09T01:32:31.528Z,100052.84
2022-08-09T01:32:49.010Z,100056.47
2022-08-09T01:33:02.397Z,100057.22
2022-08-09T01:33:16.846Z,100057.22
2022-08-09T01:33:36.968Z,100056.25
2022-08-09T01:33:50.634Z,100057.75
2022-08-09T01:34:06.228Z,100054.09
2022-08-09T01:34:22.516Z,100057.75
2022-08-09T01:34:35.515Z,100050.69
2022-08-09T01:34:53.708Z,100054.19
2022-08-09T01:35:37.291Z,100054.94
2022-08-09T01:36:13.606Z,100055.84
2022-08-09T01:36:27.726Z,100052.13
2022-08-09T01:36:42.016Z,100049.75
2022-08-09T01:36:57.869Z,100055.00
2022-08-09T01:37:14.952Z,100061.34
2022-08-09T01:37:43.202Z,100054.34
2022-08-09T01:38:14.917Z,100062.19
2022-08-09T01:38:29.968Z,100057.88
2022-08-09T01:38:46.935Z,100052.84
2022-08-09T01:39:01.642Z,100052.84
2022-08-09T01:39:16.470Z,100057.22
2022-08-09T01:39:31.043Z,100054.75
2022-08-09T01:39:50.401Z,100059.19
2022-08-09T01:40:04.588Z,100061.72
2022-08-09T01:40:22.954Z,100056.25
2022-08-09T01:40:38.080Z,100057.97
2022-08-09T01:41:05.298Z,100055.09
2022-08-09T01:41:26.845Z,100053.34
2022-08-09T01:41:59.917Z,100058.69
2022-08-09T01:42:13.831Z,100058.88
2022-08-09T01:42:26.967Z,100057.00
2022-08-09T01:42:42.282Z,100061.25
2022-08-09T01:42:56.678Z,100057.75
2022-08-09T01:43:09.950Z,100059.44
2022-08-09T01:43:24.263Z,100066.78
2022-08-09T01:43:51.052Z,100055.50
2022-08-09T01:44:05.526Z,100060.22
2022-08-09T01:44:20.907Z,100060.22
2022-08-09T01:44:34.422Z,100056.75
2022-08-09T01:44:48.584Z,100060.22
2022-08-09T01:45:02.420Z,100058.44
2022-08-09T01:45:18.515Z,100060.16
2022-08-09T01:45:31.734Z,100066.44
2022-08-09T01:45:47.748Z,100063.81
2022-08-09T01:46:00.603Z,100056.84
2022-08-09T01:46:18.216Z,100065.91
2022-08-09T01:46:47.022Z,100064.84
2022-08-09T01:47:01.476Z,100065.06
2022-08-09T01:47:14.941Z,100065.16
2022-08-09T01:47:31.506Z,100067.97
2022-08-09T01:47:45.876Z,100057.25
2022-08-09T01:48:06.050Z,100058.91
2022-08-09T01:48:20.036Z,100061.56
2022-08-09T01:48:42.883Z,100064.19
2022-08-09T01:48:59.800Z,100061.47
2022-08-09T01:49:23.969Z,100063.56
2022-08-09T01:49:39.014Z,100064.19
2022-08-09T01:49:54.677Z,100058.00
2022-08-09T01:50:08.405Z,100059.97
2022-08-09T01:50:25.494Z,100059.97
2022-08-09T01:50:54.933Z,100059.13
2022-08-09T01:51:09.919Z,100057.25
2022-08-09T01:51:23.214Z,100058.06
2022-08-09T01:51:53.539Z,100058.06
2022-08-09T01:52:14.713Z,100059.66
2022-08-09T01:52:27.685Z,100061.38
2022-08-09T01:52:43.526Z,100056.84
2022-08-09T01:52:56.521Z,100065.50
2022-08-09T01:53:19.304Z,100056.63
2022-08-09T01:53:41.081Z,100063.63
2022-08-09T01:53:57.783Z,100062.88
2022-08-09T01:54:10.734Z,100056.63
2022-08-09T01:54:56.348Z,100055.81
2022-08-09T01:55:10.591Z,100057.59
2022-08-09T01:55:25.940Z,100061.91
2022-08-09T01:55:38.898Z,100054.22
2022-08-09T01:55:54.130Z,100057.69
2022-08-09T01:56:09.518Z,100061.16
2022-08-09T01:56:23.495Z,100053.25
2022-08-09T01:56:40.194Z,100062.78
2022-08-09T01:56:55.976Z,100061.81
2022-08-09T01:57:16.261Z,100061.91
2022-08-09T01:57:45.743Z,100054.97
2022-08-09T01:58:00.241Z,100051.28
2022-08-09T01:58:13.853Z,100053.06
2022-08-09T01:58:28.619Z,100062.66
2022-08-09T01:58:44.371Z,100060.97
2022-08-09T01:59:06.232Z,100057.59
2022-08-09T01:59:20.079Z,100058.53
2022-08-09T01:59:32.752Z,100057.69
2022-08-09T01:59:59.859Z,100058.53
2022-08-09T02:00:35.063Z,100059.28
2022-08-09T02:00:50.665Z,100060.03
2022-08-09T02:01:03.930Z,100058.13
2022-08-09T02:01:18.474Z,100055.50
2022-08-09T02:02:00.054Z,100060.03
2022-08-09T02:02:05.861Z,100063.81
2022-08-09T02:02:22.975Z,100061.91
2022-08-09T02:02:47.187Z,100057.38
2022-08-09T02:03:00.213Z,100065.22
2022-08-09T02:03:15.640Z,100056.47
2022-08-09T02:03:31.143Z,100053.91
2022-08-09T02:03:44.603Z,100054.75
2022-08-09T02:03:59.820Z,100065.28
2022-08-09T02:04:14.608Z,100070.41
2022-08-09T02:04:27.941Z,100069.44
2022-08-09T02:04:45.496Z,100064.91
2022-08-09T02:05:04.715Z,100063.00
2022-08-09T02:05:21.615Z,100059.75
2022-08-09T02:06:03.710Z,100064.16
2022-08-09T02:06:45.506Z,100065.88
2022-08-09T02:07:17.838Z,100065.50
2022-08-09T02:08:35.321Z,100070.78
2022-08-09T02:08:39.538Z,100069.81
2022-08-09T02:08:58.923Z,100068.91
2022-08-09T02:09:14.632Z,100069.06
2022-08-09T02:09:41.956Z,100070.03
2022-08-09T02:10:01.406Z,100073.81
2022-08-09T02:10:19.831Z,100070.97
2022-08-09T02:10:50.973Z,100074.34
2022-08-09T02:11:17.206Z,100072.59
2022-08-09T02:11:42.014Z,100069.81
2022-08-09T02:11:57.013Z,100074.06
2022-08-09T02:12:11.378Z,100070.56
2022-08-09T02:12:32.641Z,100069.66
2022-08-09T02:12:46.670Z,100074.91
2022-08-09T02:13:05.011Z,100073.13
2022-08-09T02:13:21.973Z,100072.28
2022-08-09T02:13:40.449Z,100077.72
2022-08-09T02:14:06.186Z,100071.84
2022-08-09T02:14:26.197Z,100077.84
2022-08-09T02:14:42.060Z,100074.56
2022-08-09T02:14:55.769Z,100075.41
2022-08-09T02:15:11.770Z,100072.75
2022-08-09T02:15:48.675Z,100076.22
2022-08-09T02:16:03.768Z,100074.34
2022-08-09T02:16:17.055Z,100076.06
2022-08-09T02:16:53.083Z,100075.31
2022-08-09T02:17:59.183Z,100076.06
2022-08-09T02:18:01.498Z,100074.94
2022-08-09T02:18:23.844Z,100076.16
2022-08-09T02:18:36.667Z,100077.75
2022-08-09T02:18:49.051Z,100072.50
2022-08-09T02:19:02.555Z,100078.41
2022-08-09T02:19:17.647Z,100079.25
2022-08-09T02:19:38.491Z,100081.72
2022-08-09T02:19:51.279Z,100072.84
2022-08-09T02:20:04.641Z,100076.44
2022-08-09T02:20:26.208Z,100074.75
2022-08-09T02:20:43.543Z,100076.44
2022-08-09T02:21:00.152Z,100079.00
2022-08-09T02:21:22.143Z,100075.47
2022-08-09T02:21:41.622Z,100071.25
2022-08-09T02:21:58.042Z,100080.00
2022-08-09T02:22:17.067Z,100085.50
2022-08-09T02:22:35.950Z,100082.94
2022-08-09T02:23:16.940Z,100075.88
2022-08-09T02:23:43.204Z,100080.41
2022-08-09T02:23:59.958Z,100078.41
2022-08-09T02:24:26.438Z,100086.25
2022-08-09T02:24:41.279Z,100087.16
2022-08-09T02:24:55.856Z,100076.63
2022-08-09T02:25:17.117Z,100080.22
2022-08-09T02:25:41.866Z,100086.34
2022-08-09T02:25:57.769Z,100083.59
2022-08-09T02:26:27.313Z,100089.13
2022-08-09T02:26:42.747Z,100080.59
2022-08-09T02:26:58.645Z,100084.91
2022-08-09T02:27:14.102Z,100086.63
2022-08-09T02:27:57.343Z,100088.31
2022-08-09T02:28:28.100Z,100080.88
2022-08-09T02:29:02.027Z,100089.16
2022-08-09T02:29:20.667Z,100085.59
2022-08-09T02:29:39.112Z,100091.91
2022-08-09T02:29:55.759Z,100084.94
2022-08-09T02:30:09.506Z,100080.50
2022-08-09T02:30:22.691Z,100088.22
2022-08-09T02:30:46.420Z,100087.28
2022-08-09T02:31:23.191Z,100081.81
2022-08-09T02:31:40.733Z,100086.25
2022-08-09T02:31:58.162Z,100091.53
2022-08-09T02:32:11.803Z,100086.44
2022-08-09T02:32:26.609Z,100090.97
2022-08-09T02:32:44.728Z,100082.88
2022-08-09T02:32:59.928Z,100096.06
2022-08-09T02:33:17.031Z,100085.50
2022-08-09T02:33:58.099Z,100088.31
2022-08-09T02:34:13.258Z,100096.97
2022-08-09T02:34:41.687Z,100090.03
2022-08-09T02:35:17.515Z,100091.72
2022-08-09T02:36:02.099Z,100091.72
2022-08-09T02:36:10.529Z,100087.94
2022-08-09T02:36:37.919Z,100088.69
2022-08-09T02:36:54.347Z,100088.16
2022-08-09T02:37:12.141Z,100089.81
2022-08-09T02:37:31.456Z,100090.66
2022-08-09T02:37:47.568Z,100090.47
2022-08-09T02:38:02.903Z,100088.69
2022-08-09T02:38:22.002Z,100093.22
2022-08-09T02:39:03.685Z,100086.06
2022-08-09T02:39:33.712Z,100087.75
2022-08-09T02:40:01.699Z,100088.69
2022-08-09T02:40:24.737Z,100090.47
2022-08-09T02:40:41.111Z,100091.16
2022-08-09T02:40:56.371Z,100087.75
2022-08-09T02:41:13.287Z,100089.44
2022-08-09T02:41:41.721Z,100083.31
2022-08-09T02:41:58.580Z,100090.47
2022-08-09T02:42:17.959Z,100093.03
2022-08-09T02:42:42.859Z,100094.91
2022-08-09T02:43:00.094Z,100089.66
2022-08-09T02:43:12.978Z,100083.63
2022-08-09T02:43:29.074Z,100089.66
2022-08-09T02:43:54.567Z,100084.16
2022-08-09T02:44:30.142Z,100093.88
2022-08-09T02:44:47.092Z,100089.66
2022-08-09T02:45:13.451Z,100085.13
2022-08-09T02:45:33.954Z,100083.41
2022-08-09T02:45:49.528Z,100080.59
2022-08-09T02:46:02.035Z,100086.63
2022-08-09T02:46:17.035Z,100084.00
2022-08-09T02:46:30.787Z,100080.59
2022-08-09T02:46:44.899Z,100080.78
2022-08-09T02:46:58.366Z,100085.97
2022-08-09T02:47:13.424Z,100088.50
2022-08-09T02:47:28.585Z,100077.84
2022-08-09T02:47:58.911Z,100086.72
2022-08-09T02:48:29.727Z,100082.50
2022-08-09T02:48:46.320Z,100082.66
2022-08-09T02:49:02.977Z,100083.50
2022-08-09T02:49:17.783Z,100080.78
2022-08-09T02:49:38.736Z,100081.63
2022-08-09T02:50:09.706Z,100077.00
2022-08-09T02:50:29.119Z,100085.66
2022-08-09T02:50:53.109Z,100085.88
2022-08-09T02:51:11.579Z,100078.91
2022-08-09T02:51:33.002Z,100077.84
2022-08-09T02:51:57.256Z,100077.00
2022-08-09T02:52:15.015Z,100078.72
2022-08-09T02:52:35.217Z,100077.00
2022-08-09T02:52:55.463Z,100078.91
2022-08-09T02:53:25.992Z,100075.50
2022-08-09T02:53:52.986Z,100084.16
2022-08-09T02:54:16.590Z,100077.22
2022-08-09T02:54:32.585Z,100078.91
2022-08-09T02:54:54.536Z,100082.50
2022-08-09T02:55:20.028Z,100082.50
2022-08-09T02:55:46.361Z,100082.50
2022-08-09T02:56:08.955Z,100084.16
2022-08-09T02:56:23.845Z,100084.16
2022-08-09T02:56:48.680Z,100084.38
2022-08-09T02:57:14.033Z,100082.13
2022-08-09T02:57:40.324Z,100076.56
2022-08-09T02:58:36.944Z,100081.00
2022-08-09T02:58:45.650Z,100078.22
2022-08-09T02:59:00.920Z,100076.34
2022-08-09T02:59:26.163Z,100081.53
2022-08-09T03:00:11.452Z,100079.72
2022-08-09T03:00:25.970Z,100075.72
2022-08-09T03:00:58.297Z,100075.50
2022-08-09T03:01:21.644Z,100080.59
2022-08-09T03:01:42.797Z,100085.13
2022-08-09T03:02:17.243Z,100085.00
2022-08-09T03:02:30.979Z,100077.41
2022-08-09T03:02:59.827Z,100079.38
2022-08-09T03:03:13.778Z,100075.06
2022-08-09T03:04:13.057Z,100079.56
2022-08-09T03:04:17.660Z,100079.47
2022-08-09T03:04:33.667Z,100077.78
2022-08-09T03:04:50.867Z,100079.56
2022-08-09T03:05:05.692Z,100084.09
2022-08-09T03:05:19.407Z,100081.53
2022-08-09T03:05:34.531Z,100075.34
2022-08-09T03:05:49.365Z,100084.09
2022-08-09T03:06:14.474Z,100080.88
2022-08-09T03:06:27.935Z,100085.31
2022-08-09T03:06:42.751Z,100083.63
2022-08-09T03:07:14.299Z,100082.59
2022-08-09T03:07:27.718Z,100085.97
2022-08-09T03:07:41.197Z,100080.78
2022-08-09T03:08:09.421Z,100085.31
2022-08-09T03:08:23.331Z,100087.03
2022-08-09T03:08:37.649Z,100084.47
2022-08-09T03:08:51.555Z,100085.31
2022-08-09T03:09:05.799Z,100080.03
2022-08-09T03:09:20.186Z,100075.59
2022-08-09T03:09:33.660Z,100080.78
2022-08-09T03:09:54.283Z,100081.75
2022-08-09T03:10:09.684Z,100080.22
2022-08-09T03:10:24.014Z,100086.44
2022-08-09T03:10:37.348Z,100077.69
2022-08-09T03:10:51.081Z,100083.81
2022-08-09T03:11:04.286Z,100087.28
2022-08-09T03:12:04.348Z,100087.19
2022-08-09T03:12:08.466Z,100079.00
2022-08-09T03:12:25.940Z,100084.38
2022-08-09T03:12:39.714Z,100089.66
2022-08-09T03:12:53.075Z,100082.59
2022-08-09T03:13:08.243Z,100086.81
2022-08-09T03:13:23.819Z,100085.13
2022-08-09T03:13:44.001Z,100088.69
2022-08-09T03:14:10.348Z,100081.63
2022-08-09T03:14:28.270Z,100081.75
2022-08-09T03:14:41.483Z,100084.25
2022-08-09T03:14:56.907Z,100084.38
2022-08-09T03:15:10.313Z,100083.44
2022-08-09T03:15:25.113Z,100089.53
2022-08-09T03:16:06.634Z,100089.38
2022-08-09T03:16:19.335Z,100093.59
2022-08-09T03:16:33.731Z,100084.00
2022-08-09T03:16:49.832Z,100086.63
2022-08-09T03:17:02.724Z,100082.22
2022-08-09T03:17:20.471Z,100081.38
2022-08-09T03:17:39.859Z,100076.28
2022-08-09T03:17:58.798Z,100079.88
2022-08-09T03:18:11.519Z,100077.22
2022-08-09T03:18:30.529Z,100081.75
2022-08-09T03:18:43.814Z,100079.00
2022-08-09T03:19:01.837Z,100085.13
2022-08-09T03:19:52.208Z,100085.13
2022-08-09T03:19:59.312Z,100076.47
2022-08-09T03:20:18.450Z,100078.38
2022-08-09T03:20:37.874Z,100081.94
2022-08-09T03:20:52.201Z,100081.09
2022-08-09T03:21:06.278Z,100074.03
2022-08-09T03:21:20.917Z,100078.38
2022-08-09T03:21:39.755Z,100080.88
2022-08-09T03:21:52.627Z,100082.59
2022-08-09T03:22:12.266Z,100083.44
2022-08-09T03:22:44.483Z,100075.59
2022-08-09T03:22:58.383Z,100078.38
2022-08-09T03:23:25.679Z,100078.38
2022-08-09T03:23:38.339Z,100075.81
2022-08-09T03:24:04.275Z,100081.16
2022-08-09T03:24:42.653Z,100078.38
2022-08-09T03:24:52.214Z,100080.03
2022-08-09T03:25:21.461Z,100079.28
2022-08-09T03:25:58.015Z,100075.91
2022-08-09T03:26:10.346Z,100075.91
2022-08-09T03:26:24.760Z,100076.66
2022-08-09T03:26:48.032Z,100077.69
2022-08-09T03:27:09.085Z,100081.16
2022-08-09T03:27:22.493Z,100078.72
2022-08-09T03:27:44.824Z,100080.41
2022-08-09T03:28:00.867Z,100076.81
2022-08-09T03:28:14.145Z,100082.09
2022-08-09T03:28:30.840Z,100077.78
2022-08-09T03:28:44.169Z,100077.03
2022-08-09T03:28:59.140Z,100077.88
2022-08-09T03:29:13.566Z,100070.06
2022-08-09T03:29:57.096Z,100077.03
2022-08-09T03:30:10.153Z,100073.66
2022-08-09T03:30:33.508Z,100075.44
2022-08-09T03:30:48.998Z,100075.31
2022-08-09T03:31:10.463Z,100082.31
2022-08-09T03:31:42.371Z,100078.06
2022-08-09T03:32:09.887Z,100076.38
2022-08-09T03:32:22.042Z,100068.38
2022-08-09T03:32:36.967Z,100077.13
2022-08-09T03:32:51.439Z,100069.31
2022-08-09T03:33:17.518Z,100075.44
2022-08-09T03:33:53.607Z,100071.94
2022-08-09T03:34:05.579Z,100071.75
2022-08-09T03:34:18.612Z,100076.06
2022-08-09T03:34:31.210Z,100077.03
2022-08-09T03:34:44.059Z,100069.22
2022-08-09T03:35:00.592Z,100070.91
2022-08-09T03:35:15.010Z,100069.13
2022-08-09T03:36:13.715Z,100069.97
2022-08-09T03:36:13.844Z,100072.81
2022-08-09T03:36:28.694Z,100071.75
2022-08-09T03:36:40.637Z,100070.91
2022-08-09T03:37:10.540Z,100073.66
2022-08-09T03:37:55.520Z,100073.66
2022-08-09T03:38:04.711Z,100072.81
2022-08-09T03:38:28.960Z,100072.88
2022-08-09T03:38:44.467Z,100073.81
2022-08-09T03:38:57.216Z,100072.81
2022-08-09T03:39:09.252Z,100078.06
2022-08-09T03:39:28.724Z,100077.13
2022-08-09T03:39:55.388Z,100079.66
2022-08-09T03:40:09.303Z,100083.88
2022-08-09T03:40:25.722Z,100081.34
2022-08-09T03:40:43.110Z,100082.31
2022-08-09T03:40:55.054Z,100081.34
2022-08-09T03:41:07.025Z,100083.97
2022-08-09T03:41:21.303Z,100091.03
2022-08-09T03:41:46.073Z,100087.75
2022-08-09T03:42:05.950Z,100084.34
2022-08-09T03:42:19.285Z,100093.22
2022-08-09T03:42:38.357Z,100088.78
2022-08-09T03:42:50.375Z,100084.28
2022-08-09T03:43:02.424Z,100084.34
2022-08-09T03:43:14.629Z,100088.69
2022-08-09T03:43:32.143Z,100094.91
2022-08-09T03:44:03.454Z,100091.50
2022-08-09T03:44:18.716Z,100090.88
2022-08-09T03:44:32.084Z,100091.72
2022-08-09T03:44:44.070Z,100090.88
2022-08-09T03:44:57.029Z,100091.63
2022-08-09T03:45:09.681Z,100096.78
2022-08-09T03:46:03.949Z,100093.22
2022-08-09T03:46:04.788Z,100091.72
2022-08-09T03:46:27.417Z,100099.41
2022-08-09T03:46:42.211Z,100096.03
2022-08-09T03:46:54.480Z,100091.72
2022-08-09T03:47:06.494Z,100093.59
2022-08-09T03:47:19.207Z,100088.31
2022-08-09T03:47:31.236Z,100093.59
2022-08-09T03:47:48.680Z,100095.47
2022-08-09T03:48:00.616Z,100093.75